createdAt,value
2019-03-22T00:01:45.692Z,99798.06
2019-03-22T00:04:18.856Z,99800.77
2019-03-22T00:06:52.279Z,99792.66
2019-03-22T00:09:26.159Z,99791.65
2019-03-22T00:11:59.259Z,99795.41
2019-03-22T00:14:32.835Z,99787.19
2019-03-22T00:17:05.621Z,99796.17
2019-03-22T00:19:39.648Z,99800.21
2019-03-22T00:22:12.357Z,99796.48
2019-03-22T00:24:45.309Z,99789.41
2019-03-22T00:27:18.910Z,99798.77
2019-03-22T00:29:53.515Z,99781.19
2019-03-22T00:32:26.209Z,99790.05
2019-03-22T00:34:59.255Z,99790.93
2019-03-22T00:37:31.908Z,99784.19
2019-03-22T00:40:05.586Z,99787.55
2019-03-22T00:42:38.502Z,99783.50
2019-03-22T00:45:12.370Z,99778.62
2019-03-22T00:47:47.751Z,99771.58
2019-03-22T00:50:20.408Z,99780.61
2019-03-22T00:52:52.800Z,99778.45
2019-03-22T00:55:25.037Z,99780.60
2019-03-22T00:57:57.994Z,99784.12
2019-03-22T01:00:40.800Z,99784.12
2019-03-22T01:03:14.824Z,99778.48
2019-03-22T01:05:47.023Z,99774.78
2019-03-22T01:08:20.659Z,99781.33
2019-03-22T01:10:52.887Z,99773.48
2019-03-22T01:13:25.152Z,99755.64
2019-03-22T01:15:58.512Z,99764.78
2019-03-22T01:18:31.188Z,99761.61
2019-03-22T01:21:03.998Z,99756.72
2019-03-22T01:23:37.034Z,99752.29
2019-03-22T01:26:09.620Z,99755.27
2019-03-22T01:28:42.182Z,99751.73
2019-03-22T01:31:14.500Z,99754.98
2019-03-22T01:33:47.669Z,99757.14
2019-03-22T01:36:21.193Z,99754.95
2019-03-22T01:38:54.035Z,99758.92
2019-03-22T01:41:27.087Z,99751.28
2019-03-22T01:43:59.431Z,99747.92
2019-03-22T01:46:32.138Z,99750.19
2019-03-22T01:49:04.743Z,99749.53
2019-03-22T01:51:37.305Z,99760.66
2019-03-22T01:54:09.695Z,99752.35
2019-03-22T01:56:41.971Z,99751.84
2019-03-22T01:59:14.569Z,99742.91
2019-03-22T02:01:47.028Z,99733.47
2019-03-22T02:04:21.470Z,99732.19
2019-03-22T02:06:53.697Z,99723.12
2019-03-22T02:09:26.103Z,99719.41
2019-03-22T02:11:58.354Z,99723.25
2019-03-22T02:14:31.724Z,99718.31
2019-03-22T02:17:04.193Z,99717.92
2019-03-22T02:19:36.641Z,99712.90
2019-03-22T02:22:09.066Z,99707.20
2019-03-22T02:24:41.347Z,99709.36
2019-03-22T02:27:14.954Z,99711.76
2019-03-22T02:29:47.391Z,99705.32
2019-03-22T02:32:19.838Z,99707.52
2019-03-22T02:34:52.438Z,99708.80
2019-03-22T02:37:26.484Z,99709.42
2019-03-22T02:39:58.963Z,99714.02
2019-03-22T02:42:31.361Z,99717.39
2019-03-22T02:45:04.033Z,99708.92
2019-03-22T02:47:36.961Z,99716.96
2019-03-22T02:50:17.989Z,99720.38
2019-03-22T02:52:45.531Z,99717.86
2019-03-22T02:55:18.237Z,99725.23
2019-03-22T02:57:50.957Z,99724.60
2019-03-22T03:00:23.570Z,99730.45
2019-03-22T03:02:55.809Z,99744.46
2019-03-22T03:05:28.123Z,99745.30
2019-03-22T03:08:00.288Z,99738.73
2019-03-22T03:10:34.540Z,99731.86
2019-03-22T03:13:07.114Z,99731.80
2019-03-22T03:15:39.301Z,99728.59
2019-03-22T03:18:12.126Z,99725.13
2019-03-22T03:20:44.674Z,99725.13
2019-03-22T03:23:17.207Z,99725.81
2019-03-22T03:25:49.616Z,99735.39
2019-03-22T03:28:36.028Z,99739.82
2019-03-22T03:30:58.700Z,99730.38
2019-03-22T03:33:31.181Z,99737.20
2019-03-22T03:36:03.498Z,99738.55
2019-03-22T03:38:35.964Z,99737.00
2019-03-22T03:41:08.570Z,99745.22
2019-03-22T03:43:40.699Z,99736.95
2019-03-22T03:46:13.017Z,99741.50
2019-03-22T03:48:45.842Z,99735.14
2019-03-22T03:51:18.038Z,99728.90
2019-03-22T03:53:50.506Z,99732.56
2019-03-22T03:56:23.043Z,99737.66
2019-03-22T03:58:57.159Z,99732.69
2019-03-22T04:01:29.592Z,99725.83
2019-03-22T04:04:01.747Z,99726.20
2019-03-22T04:06:34.059Z,99722.53
2019-03-22T04:09:09.027Z,99719.34
2019-03-22T04:11:41.599Z,99720.44
2019-03-22T04:14:13.801Z,99728.14
2019-03-22T04:16:45.994Z,99714.56
2019-03-22T04:19:18.313Z,99720.53
2019-03-22T04:21:50.835Z,99720.53
2019-03-22T04:24:23.554Z,99717.89
2019-03-22T04:26:56.122Z,99709.94
2019-03-22T04:29:28.390Z,99708.05
2019-03-22T04:32:00.744Z,99708.11
2019-03-22T04:34:33.126Z,99699.83
2019-03-22T04:37:05.436Z,99697.38
2019-03-22T04:39:37.863Z,99705.38
2019-03-22T04:42:10.596Z,99707.52
2019-03-22T04:44:42.874Z,99694.52
2019-03-22T04:47:18.629Z,99713.30
2019-03-22T04:49:52.469Z,99714.20
2019-03-22T04:52:30.610Z,99721.56
2019-03-22T04:55:03.932Z,99717.63
2019-03-22T04:57:38.135Z,99727.08
2019-03-22T05:00:10.876Z,99735.75
2019-03-22T05:02:43.189Z,99745.75
2019-03-22T05:05:15.754Z,99747.00
2019-03-22T05:07:48.550Z,99741.63
2019-03-22T05:10:22.033Z,99739.88
2019-03-22T05:12:56.603Z,99735.28
2019-03-22T05:15:30.900Z,99749.80
2019-03-22T05:18:06.450Z,99753.09
2019-03-22T05:20:40.837Z,99741.96
2019-03-22T05:23:18.069Z,99751.73
2019-03-22T05:25:52.409Z,99749.42
2019-03-22T05:28:26.395Z,99749.53
2019-03-22T05:31:25.547Z,99757.58
2019-03-22T05:33:58.332Z,99754.23
2019-03-22T05:36:31.695Z,99748.13
2019-03-22T05:39:05.416Z,99751.53
2019-03-22T05:41:39.131Z,99747.88
2019-03-22T05:44:11.548Z,99750.50
2019-03-22T05:46:44.671Z,99760.67
2019-03-22T05:49:18.198Z,99759.04
2019-03-22T05:51:50.646Z,99767.86
2019-03-22T05:54:22.781Z,99763.80
2019-03-22T05:56:56.951Z,99767.22
2019-03-22T05:59:29.147Z,99774.94
2019-03-22T06:02:01.812Z,99776.08
2019-03-22T06:04:34.362Z,99779.62
2019-03-22T06:07:06.684Z,99774.34
2019-03-22T06:09:43.860Z,99779.83
2019-03-22T06:12:16.132Z,99774.85
2019-03-22T06:14:48.672Z,99771.52
2019-03-22T06:17:21.122Z,99769.33
2019-03-22T06:19:53.433Z,99772.28
2019-03-22T06:22:25.752Z,99774.08
2019-03-22T06:24:58.416Z,99774.08
2019-03-22T06:27:30.914Z,99779.30
2019-03-22T06:30:03.270Z,99786.43
2019-03-22T06:32:35.689Z,99786.41
2019-03-22T06:35:09.551Z,99786.53
2019-03-22T06:37:42.344Z,99792.27
2019-03-22T06:40:14.960Z,99792.79
2019-03-22T06:42:47.794Z,99784.02
2019-03-22T06:45:21.081Z,99795.48
2019-03-22T06:47:53.394Z,99807.41
2019-03-22T06:50:25.778Z,99813.64
2019-03-22T06:52:57.923Z,99809.13
2019-03-22T06:55:30.254Z,99806.55
2019-03-22T06:58:04.378Z,99807.98
2019-03-22T07:00:36.816Z,99811.89
2019-03-22T07:03:09.204Z,99809.31
2019-03-22T07:05:41.560Z,99816.45
2019-03-22T07:08:15.060Z,99823.66
2019-03-22T07:10:47.423Z,99822.55
2019-03-22T07:13:19.666Z,99824.66
2019-03-22T07:15:52.096Z,99832.88
2019-03-22T07:18:24.434Z,99837.78
2019-03-22T07:20:57.305Z,99842.77
2019-03-22T07:23:29.423Z,99843.94
2019-03-22T07:26:01.732Z,99840.50
2019-03-22T07:28:33.967Z,99852.34
2019-03-22T07:31:07.112Z,99847.49
2019-03-22T07:33:40.532Z,99845.40
2019-03-22T07:36:12.938Z,99849.59
2019-03-22T07:38:45.459Z,99867.89
2019-03-22T07:41:18.751Z,99870.03
2019-03-22T07:43:51.276Z,99876.69
2019-03-22T07:46:23.593Z,99872.02
2019-03-22T07:48:55.998Z,99879.04
2019-03-22T07:51:28.259Z,99880.39
2019-03-22T07:54:00.481Z,99886.18
2019-03-22T07:56:32.675Z,99890.98
2019-03-22T07:59:04.813Z,99897.16
2019-03-22T08:01:37.067Z,99903.09
2019-03-22T08:04:09.546Z,99895.72
2019-03-22T08:06:41.722Z,99895.72
2019-03-22T08:09:13.895Z,99913.50
2019-03-22T08:11:46.353Z,99905.03
2019-03-22T08:14:18.613Z,99914.25
2019-03-22T08:16:50.792Z,99914.80
2019-03-22T08:19:23.671Z,99908.16
2019-03-22T08:21:55.897Z,99896.38
2019-03-22T08:24:28.099Z,99896.80
2019-03-22T08:27:00.346Z,99886.91
2019-03-22T08:29:33.060Z,99884.42
2019-03-22T08:32:07.008Z,99883.95
2019-03-22T08:34:39.352Z,99885.41
2019-03-22T08:37:12.579Z,99882.73
2019-03-22T08:39:46.319Z,99882.73
2019-03-22T08:42:18.856Z,99889.84
2019-03-22T08:44:51.123Z,99887.14
2019-03-22T08:47:33.714Z,99889.73
2019-03-22T08:50:00.446Z,99889.65
2019-03-22T08:52:32.775Z,99880.69
2019-03-22T08:55:05.857Z,99880.30
2019-03-22T08:57:38.017Z,99874.20
2019-03-22T09:00:11.060Z,99881.78
2019-03-22T09:02:43.485Z,99872.53
2019-03-22T09:05:16.115Z,99867.62
2019-03-22T09:07:48.508Z,99875.45
2019-03-22T09:10:20.974Z,99866.91
2019-03-22T09:12:54.203Z,99873.25
2019-03-22T09:15:26.456Z,99868.38
2019-03-22T09:18:00.361Z,99873.92
2019-03-22T09:20:32.673Z,99859.11
2019-03-22T09:23:05.376Z,99858.61
2019-03-22T09:25:38.168Z,99853.70
2019-03-22T09:28:10.761Z,99848.32
2019-03-22T09:30:43.316Z,99857.81
2019-03-22T09:33:17.321Z,99862.66
2019-03-22T09:35:49.541Z,99851.36
2019-03-22T09:38:21.788Z,99836.42
2019-03-22T09:40:54.766Z,99834.73
2019-03-22T09:43:27.026Z,99838.86
2019-03-22T09:46:05.852Z,99844.98
2019-03-22T09:48:38.517Z,99839.61
2019-03-22T09:51:11.315Z,99831.00
2019-03-22T09:53:43.752Z,99836.98
2019-03-22T09:56:16.212Z,99831.30
2019-03-22T09:58:48.502Z,99826.59
2019-03-22T10:01:23.957Z,99831.34
2019-03-22T10:03:54.713Z,99824.34
2019-03-22T10:06:27.012Z,99833.13
2019-03-22T10:09:05.090Z,99827.88
2019-03-22T10:11:36.703Z,99828.03
2019-03-22T10:14:09.106Z,99824.14
2019-03-22T10:16:41.901Z,99815.31
2019-03-22T10:19:14.494Z,99809.13
2019-03-22T10:21:47.710Z,99804.38
2019-03-22T10:24:20.042Z,99805.16
2019-03-22T10:26:52.362Z,99805.71
2019-03-22T10:29:24.893Z,99803.11
2019-03-22T10:31:57.107Z,99807.25
2019-03-22T10:34:29.375Z,99802.52
2019-03-22T10:37:01.909Z,99802.06
2019-03-22T10:39:34.487Z,99799.61
2019-03-22T10:42:06.802Z,99801.84
2019-03-22T10:44:39.514Z,99795.59
2019-03-22T10:47:13.308Z,99801.49
2019-03-22T10:49:45.984Z,99799.52
2019-03-22T10:52:18.695Z,99804.02
2019-03-22T10:54:50.920Z,99812.04
2019-03-22T10:57:24.387Z,99822.95
2019-03-22T10:59:57.562Z,99827.19
2019-03-22T11:02:29.953Z,99833.06
2019-03-22T11:05:02.519Z,99837.59
2019-03-22T11:07:35.472Z,99832.14
2019-03-22T11:10:11.169Z,99833.69
2019-03-22T11:12:44.581Z,99837.28
2019-03-22T11:15:17.372Z,99826.64
2019-03-22T11:17:50.518Z,99824.61
2019-03-22T11:20:24.462Z,99830.34
2019-03-22T11:22:56.695Z,99832.27
2019-03-22T11:25:29.717Z,99831.36
2019-03-22T11:28:02.014Z,99827.54
2019-03-22T11:30:34.865Z,99833.49
2019-03-22T11:33:07.455Z,99830.27
2019-03-22T11:35:40.177Z,99829.48
2019-03-22T11:38:12.729Z,99834.98
2019-03-22T11:40:46.995Z,99838.73
2019-03-22T11:43:19.579Z,99838.47
2019-03-22T11:45:52.126Z,99832.02
2019-03-22T11:48:24.583Z,99836.20
2019-03-22T11:50:57.490Z,99831.72
2019-03-22T11:53:29.838Z,99828.89
2019-03-22T11:56:02.476Z,99818.80
2019-03-22T11:58:37.135Z,99812.94
2019-03-22T12:01:19.146Z,99814.47
2019-03-22T12:03:45.076Z,99803.34
2019-03-22T12:06:18.285Z,99799.14
2019-03-22T12:08:51.714Z,99809.58
2019-03-22T12:11:24.171Z,99800.98
2019-03-22T12:13:57.383Z,99787.05
2019-03-22T12:16:29.793Z,99784.54
2019-03-22T12:19:01.963Z,99772.41
2019-03-22T12:21:35.968Z,99772.11
2019-03-22T12:24:08.605Z,99771.47
2019-03-22T12:26:41.007Z,99775.34
2019-03-22T12:29:13.455Z,99768.59
2019-03-22T12:31:48.495Z,99772.00
2019-03-22T12:34:21.993Z,99770.91
2019-03-22T12:36:55.982Z,99770.91
2019-03-22T12:39:29.323Z,99768.67
2019-03-22T12:42:02.365Z,99771.63
2019-03-22T12:44:34.920Z,99776.08
2019-03-22T12:47:07.755Z,99778.11
2019-03-22T12:49:40.347Z,99777.18
2019-03-22T12:52:15.302Z,99786.88
2019-03-22T12:54:47.961Z,99791.30
2019-03-22T12:57:20.616Z,99790.02
2019-03-22T12:59:53.375Z,99788.66
2019-03-22T13:02:26.120Z,99786.22
2019-03-22T13:05:00.058Z,99784.92
2019-03-22T13:07:33.047Z,99783.22
2019-03-22T13:10:07.955Z,99776.99
2019-03-22T13:12:40.787Z,99780.64
2019-03-22T13:15:13.843Z,99773.33
2019-03-22T13:17:47.135Z,99766.63
2019-03-22T13:20:19.664Z,99766.63
2019-03-22T13:22:53.480Z,99771.56
2019-03-22T13:25:26.248Z,99765.09
2019-03-22T13:27:58.579Z,99754.98
2019-03-22T13:30:36.311Z,99757.36
2019-03-22T13:33:09.764Z,99760.31
2019-03-22T13:35:43.621Z,99775.68
2019-03-22T13:38:16.096Z,99781.77
2019-03-22T13:40:48.408Z,99787.52
2019-03-22T13:43:20.856Z,99781.56
2019-03-22T13:45:54.081Z,99781.56
2019-03-22T13:48:26.399Z,99785.27
2019-03-22T13:50:58.680Z,99786.91
2019-03-22T13:53:30.896Z,99778.36
2019-03-22T13:56:03.217Z,99780.59
2019-03-22T13:58:36.442Z,99782.48
2019-03-22T14:01:08.974Z,99780.75
2019-03-22T14:03:42.309Z,99763.53
2019-03-22T14:06:14.661Z,99773.50
2019-03-22T14:08:47.277Z,99773.50
2019-03-22T14:11:19.701Z,99766.84
2019-03-22T14:13:53.500Z,99757.67
2019-03-22T14:16:26.122Z,99747.02
2019-03-22T14:19:00.071Z,99745.66
2019-03-22T14:21:33.632Z,99750.55
2019-03-22T14:24:07.498Z,99741.50
2019-03-22T14:26:39.857Z,99747.22
2019-03-22T14:29:12.234Z,99740.66
2019-03-22T14:31:44.719Z,99742.23
2019-03-22T14:34:17.316Z,99743.77
2019-03-22T14:36:50.501Z,99739.33
2019-03-22T14:39:23.608Z,99744.70
2019-03-22T14:41:56.033Z,99726.57
2019-03-22T14:44:28.432Z,99744.94
2019-03-22T14:47:00.800Z,99737.64
2019-03-22T14:49:39.013Z,99728.16
2019-03-22T14:52:12.394Z,99744.50
2019-03-22T14:54:44.850Z,99739.81
2019-03-22T14:57:17.547Z,99738.04
2019-03-22T14:59:58.855Z,99748.76
2019-03-22T15:02:25.702Z,99745.53
2019-03-22T15:04:57.982Z,99750.02
2019-03-22T15:07:30.289Z,99750.95
2019-03-22T15:10:02.576Z,99750.95
2019-03-22T15:12:34.740Z,99766.28
2019-03-22T15:15:29.970Z,99766.69
2019-03-22T15:18:11.807Z,99760.95
2019-03-22T15:20:58.048Z,99756.37
2019-03-22T15:23:50.006Z,99743.85
2019-03-22T15:26:59.805Z,99745.73
2019-03-22T15:29:59.659Z,99746.88
2019-03-22T15:33:08.884Z,99744.91
2019-03-22T15:36:06.470Z,99751.36
2019-03-22T15:38:59.829Z,99759.90
2019-03-22T15:41:33.108Z,99757.02
2019-03-22T15:44:05.411Z,99758.95
2019-03-22T15:46:38.024Z,99752.75
2019-03-22T15:49:10.524Z,99747.08
2019-03-22T15:51:43.055Z,99752.81
2019-03-22T15:54:15.928Z,99759.08
2019-03-22T15:56:48.991Z,99761.49
2019-03-22T15:59:21.737Z,99749.30
2019-03-22T16:01:53.919Z,99745.62
2019-03-22T16:04:26.284Z,99748.66
2019-03-22T16:06:58.474Z,99738.48
2019-03-22T16:09:31.137Z,99734.63
2019-03-22T16:12:03.518Z,99732.82
2019-03-22T16:14:35.704Z,99733.44
2019-03-22T16:17:08.027Z,99732.41
2019-03-22T16:19:40.412Z,99742.83
2019-03-22T16:22:12.953Z,99750.55
2019-03-22T16:24:45.072Z,99744.28
2019-03-22T16:27:17.329Z,99751.28
2019-03-22T16:29:49.649Z,99749.80
2019-03-22T16:32:21.847Z,99745.22
2019-03-22T16:34:53.998Z,99756.77
2019-03-22T16:37:26.166Z,99760.88
2019-03-22T16:39:58.290Z,99752.52
2019-03-22T16:42:30.488Z,99759.52
2019-03-22T16:45:03.748Z,99762.45
2019-03-22T16:47:36.425Z,99766.94
2019-03-22T16:50:23.459Z,99762.13
2019-03-22T16:52:55.665Z,99761.64
2019-03-22T16:55:28.225Z,99758.28
2019-03-22T16:58:00.605Z,99758.28
2019-03-22T17:00:33.007Z,99761.43
2019-03-22T17:03:07.927Z,99769.42
2019-03-22T17:05:40.217Z,99764.94
2019-03-22T17:08:13.938Z,99774.08
2019-03-22T17:10:46.199Z,99769.72
2019-03-22T17:13:18.542Z,99760.95
2019-03-22T17:15:50.799Z,99748.80
2019-03-22T17:18:23.579Z,99751.81
2019-03-22T17:20:56.028Z,99753.56
2019-03-22T17:23:28.408Z,99761.56
2019-03-22T17:26:01.868Z,99754.09
2019-03-22T17:28:34.326Z,99763.14
2019-03-22T17:31:06.693Z,99769.70
2019-03-22T17:33:38.909Z,99764.59
2019-03-22T17:36:11.130Z,99762.63
2019-03-22T17:38:43.651Z,99763.13
2019-03-22T17:41:16.075Z,99766.36
2019-03-22T17:43:48.280Z,99763.22
2019-03-22T17:46:20.703Z,99765.90
2019-03-22T17:48:52.906Z,99773.29
2019-03-22T17:51:25.454Z,99774.11
2019-03-22T17:53:57.781Z,99771.19
2019-03-22T17:56:30.359Z,99773.59
2019-03-22T17:59:02.877Z,99772.00
2019-03-22T18:01:36.226Z,99774.16
2019-03-22T18:04:08.792Z,99783.20
2019-03-22T18:06:40.971Z,99777.23
2019-03-22T18:09:13.198Z,99777.97
2019-03-22T18:11:45.414Z,99785.68
2019-03-22T18:14:17.750Z,99786.63
2019-03-22T18:16:50.031Z,99790.15
2019-03-22T18:19:24.562Z,99785.17
2019-03-22T18:21:56.726Z,99785.61
2019-03-22T18:24:29.128Z,99778.98
2019-03-22T18:27:01.611Z,99775.06
2019-03-22T18:29:33.850Z,99776.41
2019-03-22T18:32:06.753Z,99771.00
2019-03-22T18:34:38.948Z,99773.70
2019-03-22T18:37:11.249Z,99773.00
2019-03-22T18:39:43.464Z,99778.30
2019-03-22T18:42:16.764Z,99771.45
2019-03-22T18:44:49.113Z,99765.09
2019-03-22T18:47:21.487Z,99764.87
2019-03-22T18:49:53.766Z,99767.48
2019-03-22T18:52:25.915Z,99761.44
2019-03-22T18:54:58.280Z,99763.84
2019-03-22T18:57:30.637Z,99764.78
2019-03-22T19:00:05.421Z,99760.09
2019-03-22T19:02:37.768Z,99762.78
2019-03-22T19:05:10.323Z,99759.77
2019-03-22T19:07:42.710Z,99758.84
2019-03-22T19:10:17.758Z,99761.56
2019-03-22T19:12:50.031Z,99755.52
2019-03-22T19:15:22.334Z,99747.80
2019-03-22T19:17:54.923Z,99751.56
2019-03-22T19:20:27.366Z,99742.89
2019-03-22T19:22:59.498Z,99741.34
2019-03-22T19:25:31.841Z,99740.63
2019-03-22T19:28:03.950Z,99734.78
2019-03-22T19:30:36.546Z,99740.30
2019-03-22T19:33:09.928Z,99737.55
2019-03-22T19:35:42.274Z,99737.55
2019-03-22T19:38:16.763Z,99747.16
2019-03-22T19:40:49.143Z,99734.44
2019-03-22T19:43:21.513Z,99734.84
2019-03-22T19:45:53.691Z,99731.63
2019-03-22T19:48:25.888Z,99732.15
2019-03-22T19:50:58.192Z,99727.95
2019-03-22T19:53:30.549Z,99742.11
2019-03-22T19:56:03.707Z,99739.38
2019-03-22T19:58:37.910Z,99738.13
2019-03-22T20:01:10.200Z,99734.27
2019-03-22T20:03:42.936Z,99730.17
2019-03-22T20:06:15.815Z,99725.38
2019-03-22T20:08:48.444Z,99727.77
2019-03-22T20:11:21.024Z,99727.95
2019-03-22T20:13:53.514Z,99731.78
2019-03-22T20:16:25.956Z,99729.73
2019-03-22T20:18:58.643Z,99730.44
2019-03-22T20:21:31.246Z,99725.67
2019-03-22T20:24:04.139Z,99724.18
2019-03-22T20:26:36.806Z,99719.28
2019-03-22T20:29:09.882Z,99720.70
2019-03-22T20:31:42.113Z,99723.41
2019-03-22T20:34:14.521Z,99726.92
2019-03-22T20:36:47.193Z,99728.22
2019-03-22T20:39:19.953Z,99721.91
2019-03-22T20:41:52.453Z,99720.05
2019-03-22T20:44:33.540Z,99724.92
2019-03-22T20:46:58.975Z,99721.36
2019-03-22T20:49:31.708Z,99730.49
2019-03-22T20:52:04.615Z,99720.08
2019-03-22T20:54:37.889Z,99720.08
2019-03-22T20:57:11.127Z,99730.42
2019-03-22T20:59:43.371Z,99727.67
2019-03-22T21:02:16.044Z,99727.50
2019-03-22T21:04:49.254Z,99723.69
2019-03-22T21:07:21.818Z,99718.11
2019-03-22T21:09:54.251Z,99716.73
2019-03-22T21:12:26.803Z,99726.24
2019-03-22T21:14:59.261Z,99723.88
2019-03-22T21:17:31.487Z,99724.63
2019-03-22T21:20:03.911Z,99717.54
2019-03-22T21:22:36.434Z,99718.50
2019-03-22T21:25:09.978Z,99723.03
2019-03-22T21:27:42.292Z,99719.03
2019-03-22T21:30:15.056Z,99718.59
2019-03-22T21:32:47.331Z,99720.86
2019-03-22T21:35:22.893Z,99716.17
2019-03-22T21:37:54.142Z,99714.65
2019-03-22T21:40:26.755Z,99721.70
2019-03-22T21:42:59.101Z,99709.89
2019-03-22T21:45:31.785Z,99689.83
2019-03-22T21:48:04.180Z,99685.99
2019-03-22T21:50:36.904Z,99693.19
2019-03-22T21:53:11.484Z,99686.95
2019-03-22T21:55:43.895Z,99684.13
2019-03-22T21:58:16.318Z,99689.66
2019-03-22T22:00:49.900Z,99684.64
2019-03-22T22:03:22.554Z,99685.16
2019-03-22T22:05:55.014Z,99694.40
2019-03-22T22:08:27.336Z,99688.24
2019-03-22T22:11:00.307Z,99684.38
2019-03-22T22:13:33.786Z,99688.16
2019-03-22T22:16:07.381Z,99694.06
2019-03-22T22:18:39.880Z,99681.67
2019-03-22T22:21:13.069Z,99678.47
2019-03-22T22:23:45.828Z,99674.09
2019-03-22T22:26:18.430Z,99678.47
2019-03-22T22:28:51.350Z,99669.79
2019-03-22T22:31:23.799Z,99663.42
2019-03-22T22:33:56.635Z,99669.20
2019-03-22T22:36:28.985Z,99662.12
2019-03-22T22:39:03.221Z,99665.66
2019-03-22T22:41:37.455Z,99658.59
2019-03-22T22:44:10.226Z,99662.12
2019-03-22T22:46:43.005Z,99662.12
2019-03-22T22:49:15.447Z,99662.63
2019-03-22T22:51:48.403Z,99664.94
2019-03-22T22:54:20.729Z,99657.87
2019-03-22T22:56:53.040Z,99663.97
2019-03-22T22:59:25.548Z,99663.20
2019-03-22T23:01:58.036Z,99665.61
2019-03-22T23:04:32.230Z,99660.80
2019-03-22T23:07:04.692Z,99656.67
2019-03-22T23:09:37.262Z,99655.27
2019-03-22T23:12:09.924Z,99654.80
2019-03-22T23:14:42.311Z,99664.23
2019-03-22T23:17:14.622Z,99659.01
2019-03-22T23:19:51.050Z,99657.79
2019-03-22T23:22:23.678Z,99654.97
2019-03-22T23:24:56.088Z,99658.87
2019-03-22T23:27:28.505Z,99658.27
2019-03-22T23:30:01.524Z,99659.69
2019-03-22T23:32:33.907Z,99662.09
2019-03-22T23:35:07.389Z,99655.59
2019-03-22T23:37:40.232Z,99652.12
2019-03-22T23:40:12.886Z,99653.87
2019-03-22T23:42:45.032Z,99657.17
2019-03-22T23:45:17.358Z,99651.70
2019-03-22T23:47:49.784Z,99646.45
2019-03-22T23:50:22.175Z,99646.45
2019-03-22T23:52:54.601Z,99643.92
2019-03-22T23:55:28.775Z,99644.99
2019-03-22T23:58:01.558Z,99643.17
